Agia Marina — SX5375 — position and weather

sailwx.info

Track history (hours):
 
Tides and Currents Weather Stations Pressure Air Temp Water Temp Dewpoint Dewpoint Depression Visibility Wind Speed Wind Dir Waves Ship Positions

Agia Marina

Last reported at 2017-May-20 23:14 UTC. Time now 2017-May-25 03:05 UTC.
Position N 37°26' E 024°44'.

Length 59 m; draft 2.5 m.

Type: Cargo ship. MMSI: 237042500.

Date/timePositionNaut miles runAvg speedWind from/ knotsBaromVisibWave heightAir tempDewpointWater temp
2017-May-20 23:14N 37°26' E 024°44'2 7.5
2017-May-20 23:00N 37°25' E 024°45'4 7.7
2017-May-20 22:30N 37°22' E 024°49'4 7.4
2017-May-20 22:00N 37°20' E 024°52'4 7.5
2017-May-20 21:30N 37°19' E 024°57'4 7.7
2017-May-20 21:00N 37°17' E 025°01'4 7.7
2017-May-20 20:30N 37°15' E 025°05'4 7.5
2017-May-20 20:00N 37°13' E 025°09'4 7.6
2017-May-20 19:30N 37°12' E 025°14'4 7.8
2017-May-20 19:00N 37°10' E 025°18'4 8.0
2017-May-20 18:30N 37°07' E 025°21'1 1.9
2017-May-20 18:00N 37°06' E 025°22'0 0.0
2017-May-20 17:30N 37°06' E 025°22'3 6.2
2017-May-20 17:00N 37°08' E 025°19'4 7.3
2017-May-20 16:30N 37°10' E 025°16'4 7.8
2017-May-20 16:00N 37°12' E 025°11'4 7.7
2017-May-20 15:30N 37°13' E 025°07'4 7.5
2017-May-20 15:00N 37°15' E 025°02'4 7.5
2017-May-20 14:30N 37°17' E 024°58'8 7.5
2017-May-20 13:30N 37°20' E 024°50'4 7.3
2017-May-20 13:00N 37°22' E 024°46'36 7.7
2017-May-20 08:19N 37°34' E 024°03'3 7.4
2017-May-20 07:54N 37°35' E 023°60'13 7.5
2017-May-20 06:08N 37°39' E 023°44'1 7.5
2017-May-20 06:00N 37°40' E 023°43'4 7.7
2017-May-20 05:30N 37°43' E 023°40'4 7.5
2017-May-20 05:00N 37°47' E 023°38'4 7.6
2017-May-20 04:30N 37°50' E 023°36'4 7.6
2017-May-20 04:00N 37°54' E 023°35'3 6.9
2017-May-20 03:30N 37°57' E 023°34'3 6.3
2017-May-20 03:00N 38°00' E 023°33'3 5.2
2017-May-20 02:30N 38°02' E 023°36'0 0.0
2017-May-20 02:00N 38°02' E 023°36'0 0.0
2017-May-20 01:30N 38°02' E 023°36'0 0.0
2017-May-20 01:00N 38°02' E 023°36'0 0.0
2017-May-20 00:30N 38°02' E 023°36'0 0.0
2017-May-20 00:00N 38°02' E 023°36'0 0.0
2017-May-19 23:30N 38°02' E 023°36'0 0.0
2017-May-19 23:00N 38°02' E 023°36'0 0.0
2017-May-19 22:30N 38°02' E 023°36'0 0.0
2017-May-19 22:00N 38°02' E 023°36'0 0.0
2017-May-19 21:30N 38°02' E 023°36'0 0.0
2017-May-19 21:00N 38°02' E 023°36'0 0.0
2017-May-19 20:30N 38°02' E 023°36'0 0.0
2017-May-19 20:00N 38°02' E 023°36'0 0.0
2017-May-19 19:30N 38°02' E 023°36'0 0.0
2017-May-19 19:00N 38°02' E 023°36'0 0.0
2017-May-19 18:30N 38°02' E 023°36'0 0.0
2017-May-19 18:00N 38°02' E 023°36'0 0.0
2017-May-19 17:30N 38°02' E 023°36'0 0.0
2017-May-19 17:00N 38°02' E 023°36'0 0.0
2017-May-19 16:30N 38°02' E 023°36'0 0.0
2017-May-19 16:00N 38°02' E 023°36'0 0.0
2017-May-19 15:30N 38°02' E 023°36'0 0.0
2017-May-19 15:00N 38°02' E 023°36'0 0.0
2017-May-19 14:00N 38°02' E 023°36'0 0.0
2017-May-19 13:30N 38°02' E 023°36'0 0.0
2017-May-19 13:00N 38°02' E 023°36'0 0.0
2017-May-19 12:30N 38°02' E 023°36'0 0.0
2017-May-19 12:00N 38°02' E 023°36'0 0.0
2017-May-19 11:30N 38°02' E 023°36'0 0.0
2017-May-19 11:00N 38°02' E 023°36'0 0.0
2017-May-19 10:30N 38°02' E 023°36'0 0.0
2017-May-19 10:00N 38°02' E 023°36'0 0.0
2017-May-19 09:30N 38°02' E 023°36'0 0.0
2017-May-19 09:00N 38°02' E 023°36'0 0.0
2017-May-19 08:30N 38°02' E 023°36'0 0.0
2017-May-19 08:00N 38°02' E 023°36'0 0.0
2017-May-19 07:30N 38°02' E 023°36'0 0.0
2017-May-19 07:00N 38°02' E 023°36'0 0.0
2017-May-19 06:30N 38°02' E 023°36'0 0.0
2017-May-19 06:00N 38°02' E 023°36'0 0.0
2017-May-19 05:30N 38°02' E 023°36'0 0.0
2017-May-19 05:00N 38°02' E 023°36'0 0.0
2017-May-19 04:30N 38°02' E 023°36'0 0.0
2017-May-19 04:01N 38°02' E 023°36'0 0.0
2017-May-19 03:30N 38°02' E 023°36'0 0.0
2017-May-19 03:00N 38°02' E 023°36'0 0.0
2017-May-19 02:30N 38°02' E 023°36'0 0.0
2017-May-19 02:00N 38°02' E 023°36'0 0.0
2017-May-19 01:30N 38°02' E 023°36'0 0.0
2017-May-19 01:00N 38°02' E 023°36'0 0.0
2017-May-19 00:30N 38°02' E 023°36'0 0.0
2017-May-19 00:00N 38°02' E 023°36'0 0.0
2017-May-18 23:30N 38°02' E 023°36'0 0.0
2017-May-18 23:00N 38°02' E 023°36'0 0.0
2017-May-18 22:30N 38°02' E 023°36'0 0.0
2017-May-18 22:00N 38°02' E 023°36'0 0.0
2017-May-18 21:30N 38°02' E 023°36'0 0.0
2017-May-18 21:00N 38°02' E 023°36'0 0.0
2017-May-18 20:30N 38°02' E 023°36'0 0.0
2017-May-18 20:00N 38°02' E 023°36'0 0.0
2017-May-18 19:30N 38°02' E 023°36'0 0.0
2017-May-18 19:00N 38°02' E 023°36'0 0.0
2017-May-18 18:30N 38°02' E 023°36'0 0.0
2017-May-18 18:01N 38°02' E 023°36'0 0.0
2017-May-18 17:30N 38°02' E 023°36'0 0.0
2017-May-18 17:00N 38°02' E 023°36'0 0.0
2017-May-18 16:30N 38°02' E 023°36'0 0.0
2017-May-18 16:00N 38°02' E 023°36'0 0.0
2017-May-18 15:30N 38°02' E 023°36'0 0.0
2017-May-18 15:00N 38°02' E 023°36'0 0.0
2017-May-18 14:00N 38°02' E 023°36'0 0.0
2017-May-18 13:30N 38°02' E 023°36'0 0.0
2017-May-18 13:00N 38°02' E 023°36'0 0.0
2017-May-18 12:30N 38°02' E 023°36'0 0.0
2017-May-18 12:00N 38°02' E 023°36'0 0.0
2017-May-18 11:30N 38°02' E 023°36'0 0.0
2017-May-18 11:00N 38°02' E 023°36'0 0.0
2017-May-18 10:30N 38°02' E 023°36'0 0.0
2017-May-18 10:00N 38°02' E 023°36'0 0.0
2017-May-18 09:30N 38°02' E 023°36'0 0.0
2017-May-18 09:00N 38°02' E 023°36'0 0.0
2017-May-18 08:30N 38°02' E 023°36'0 0.0
2017-May-18 08:00N 38°02' E 023°36'0 0.0
2017-May-18 07:30N 38°02' E 023°36'0 0.0
2017-May-18 07:00N 38°02' E 023°36'0 0.0
2017-May-18 06:30N 38°02' E 023°36'0 0.0
2017-May-18 06:00N 38°02' E 023°36'0 0.0
2017-May-18 05:30N 38°02' E 023°36'0 0.0
2017-May-18 05:00N 38°02' E 023°36'0 0.0
2017-May-18 04:30N 38°02' E 023°36'0 0.0
2017-May-18 04:00N 38°02' E 023°36'0 0.0
2017-May-18 03:30N 38°02' E 023°36'0 0.0
2017-May-18 03:00N 38°02' E 023°36'0 0.0
2017-May-18 02:30N 38°02' E 023°36'0 0.0
2017-May-18 02:00N 38°02' E 023°36'0 0.0
2017-May-18 01:30N 38°02' E 023°36'0 0.0
2017-May-18 01:00N 38°02' E 023°36'0 0.0
2017-May-18 00:30N 38°02' E 023°36'0 0.0
2017-May-18 00:00N 38°02' E 023°36'0 0.0
2017-May-17 23:30N 38°02' E 023°36'0 0.0
2017-May-17 23:00N 38°02' E 023°36'0 0.0
2017-May-17 22:30N 38°02' E 023°36'0 0.0
2017-May-17 22:00N 38°02' E 023°36'0 0.0
2017-May-17 21:30N 38°02' E 023°36'0 0.0
2017-May-17 21:00N 38°02' E 023°36'0 0.0
2017-May-17 20:30N 38°02' E 023°36'0 0.0
2017-May-17 20:00N 38°02' E 023°36'0 0.0
2017-May-17 19:30N 38°02' E 023°36'0 0.0
2017-May-17 19:00N 38°02' E 023°36'0 0.0
2017-May-17 18:30N 38°02' E 023°36'0 0.0
2017-May-17 18:00N 38°02' E 023°36'0 0.0
2017-May-17 17:30N 38°02' E 023°36'0 0.0
2017-May-17 17:00N 38°02' E 023°36'0 0.0
2017-May-17 16:30N 38°02' E 023°36'0 0.0
2017-May-17 16:00N 38°02' E 023°36'0 0.0
2017-May-17 15:30N 38°02' E 023°36'0 0.0
2017-May-17 15:00N 38°02' E 023°36'0 0.0
2017-May-17 14:00N 38°02' E 023°36'0 0.0
2017-May-17 13:30N 38°02' E 023°36'0 0.0
2017-May-17 13:00N 38°02' E 023°36'0 0.0
2017-May-17 12:30N 38°02' E 023°36'0 0.0
2017-May-17 12:00N 38°02' E 023°36'0 0.0
2017-May-17 11:30N 38°02' E 023°36'0 0.0
2017-May-17 11:00N 38°02' E 023°36'0 0.0
2017-May-17 10:30N 38°02' E 023°36'0 0.0
2017-May-17 10:00N 38°02' E 023°36'0 0.0
2017-May-17 09:30N 38°02' E 023°36'0 0.0
2017-May-17 09:00N 38°02' E 023°36'0 0.0
2017-May-17 08:30N 38°02' E 023°36'0 0.0
2017-May-17 08:00N 38°02' E 023°36'0 0.0
2017-May-17 07:30N 38°02' E 023°36'0 0.0
2017-May-17 07:00N 38°02' E 023°36'0 0.0
2017-May-17 06:30N 38°02' E 023°36'0 0.0
2017-May-17 06:00N 38°02' E 023°36'0 0.0
2017-May-17 05:30N 38°02' E 023°36'0 0.0
2017-May-17 05:01N 38°02' E 023°36'0 0.0
2017-May-17 04:30N 38°02' E 023°36'0 0.0
2017-May-17 04:00N 38°02' E 023°36'0 0.0
2017-May-17 03:30N 38°02' E 023°36'0 0.0
2017-May-17 03:00N 38°02' E 023°36'0 0.0
2017-May-17 02:30N 38°02' E 023°36'0 0.0
2017-May-17 02:00N 38°02' E 023°36'0 0.0
2017-May-17 01:30N 38°02' E 023°36'0 0.0
2017-May-17 01:00N 38°02' E 023°36'0 0.0
2017-May-17 00:30N 38°02' E 023°36'0 0.0
2017-May-17 00:00N 38°02' E 023°36'0 0.0
2017-May-16 23:30N 38°02' E 023°36'0 0.0
2017-May-16 23:00N 38°02' E 023°36'0 0.0
2017-May-16 22:30N 38°02' E 023°36'0 0.0
2017-May-16 22:00N 38°02' E 023°36'0 0.0
2017-May-16 21:30N 38°02' E 023°36'0 0.0
2017-May-16 21:01N 38°02' E 023°36'0 0.0
2017-May-16 20:31N 38°02' E 023°36'0 0.0
2017-May-16 20:00N 38°02' E 023°36'0 0.0
2017-May-16 19:30N 38°02' E 023°36'0 0.0
2017-May-16 19:00N 38°02' E 023°36'0 0.0
2017-May-16 18:30N 38°02' E 023°36'0 0.0
2017-May-16 18:00N 38°02' E 023°36'0 0.0
2017-May-16 17:30N 38°02' E 023°36'0 0.0
2017-May-16 17:00N 38°02' E 023°36'0 0.0
2017-May-16 16:30N 38°02' E 023°36'0 0.0
2017-May-16 16:00N 38°02' E 023°36'0 0.0
2017-May-16 15:30N 38°02' E 023°36'0 0.0
2017-May-16 15:00N 38°02' E 023°36'0 0.0
2017-May-16 14:30N 38°02' E 023°36'0 0.0
2017-May-16 13:30N 38°02' E 023°36'0 0.0
2017-May-16 13:00N 38°02' E 023°36'0 0.0
2017-May-16 12:30N 38°02' E 023°36'0 0.0
2017-May-16 12:00N 38°02' E 023°36'0 0.0
2017-May-16 11:30N 38°02' E 023°36'0 0.0
2017-May-16 11:00N 38°02' E 023°36'0 0.0
2017-May-16 10:30N 38°02' E 023°36'0 0.0
2017-May-16 10:00N 38°02' E 023°36'0 0.0
2017-May-16 09:30N 38°02' E 023°36'0 0.0
2017-May-16 09:00N 38°02' E 023°36'0 0.0
2017-May-16 08:30N 38°02' E 023°36'0 0.0
2017-May-16 08:00N 38°02' E 023°36'0 0.0
2017-May-16 07:30N 38°02' E 023°36'0 0.0
2017-May-16 07:00N 38°02' E 023°36'0 0.0
2017-May-16 06:30N 38°02' E 023°36'0 0.0
2017-May-16 06:00N 38°02' E 023°36'0 0.0
2017-May-16 05:30N 38°02' E 023°36'0 0.0
2017-May-16 05:00N 38°02' E 023°36'0 0.0
2017-May-16 04:30N 38°02' E 023°36'0 0.0
2017-May-16 04:00N 38°02' E 023°36'0 0.0
2017-May-16 03:30N 38°02' E 023°36'0 0.0
2017-May-16 03:00N 38°02' E 023°36'0 0.0
2017-May-16 02:30N 38°02' E 023°36'0 0.0
2017-May-16 02:00N 38°02' E 023°36'0 0.0
2017-May-16 01:30N 38°02' E 023°36'0 0.0
2017-May-16 01:00N 38°02' E 023°36'0 0.0
2017-May-16 00:31N 38°02' E 023°36'0 0.0
2017-May-16 00:00N 38°02' E 023°36'0 0.0
2017-May-15 23:30N 38°02' E 023°36'0 0.0
2017-May-15 23:00N 38°02' E 023°36'0 0.0
2017-May-15 22:30N 38°02' E 023°36'0 0.0
2017-May-15 22:00N 38°02' E 023°36'0 0.0
2017-May-15 21:30N 38°02' E 023°36'0 0.0
2017-May-15 21:00N 38°02' E 023°36'0 0.0
2017-May-15 20:30N 38°02' E 023°36'0 0.0
2017-May-15 20:00N 38°02' E 023°36'0 0.0
2017-May-15 19:30N 38°02' E 023°36'0 0.0
2017-May-15 19:00N 38°02' E 023°36'0 0.0
2017-May-15 18:30N 38°02' E 023°36'0 0.0
2017-May-15 18:00N 38°02' E 023°36'0 0.0
2017-May-15 17:30N 38°02' E 023°36'0 0.0
2017-May-15 17:00N 38°02' E 023°36'0 0.0
2017-May-15 16:30N 38°02' E 023°36'0 0.0
2017-May-15 16:00N 38°02' E 023°36'0 0.0
2017-May-15 15:30N 38°02' E 023°36'0 0.0
2017-May-15 15:00N 38°02' E 023°36'0 0.0
2017-May-15 14:30N 38°02' E 023°36'0 0.0
2017-May-15 13:31N 38°02' E 023°36'0 0.0
2017-May-15 13:00N 38°02' E 023°36'0 0.0
2017-May-15 12:30N 38°02' E 023°36'0 0.0
2017-May-15 12:00N 38°02' E 023°36'0 0.0
2017-May-15 11:30N 38°02' E 023°36'0 0.0
2017-May-15 11:00N 38°02' E 023°36'0 0.0
2017-May-15 10:30N 38°02' E 023°36'0 0.0
2017-May-15 10:00N 38°02' E 023°36'0 0.0
2017-May-15 09:30N 38°02' E 023°36'0 0.0
2017-May-15 09:00N 38°02' E 023°36'0 0.0
2017-May-15 08:30N 38°02' E 023°36'0 0.0
2017-May-15 08:00N 38°02' E 023°36'0 0.0
2017-May-15 07:30N 38°02' E 023°36'0 0.0
2017-May-15 07:00N 38°02' E 023°36'0 0.0
2017-May-15 06:30N 38°02' E 023°36'0 0.0
2017-May-15 06:00N 38°02' E 023°36'0 0.0
2017-May-15 05:30N 38°02' E 023°36'0 0.0
2017-May-15 05:00N 38°02' E 023°36'0 0.0
2017-May-15 04:30N 38°02' E 023°36'0 0.0
2017-May-15 04:00N 38°02' E 023°36'0 0.0
2017-May-15 03:30N 38°02' E 023°36'0 0.0
2017-May-15 03:00N 38°02' E 023°36'0 0.0
2017-May-15 02:30N 38°02' E 023°36'0 0.0
2017-May-15 02:00N 38°02' E 023°36'0 0.0
2017-May-15 01:30N 38°02' E 023°36'0 0.0
2017-May-15 01:00N 38°02' E 023°36'0 0.0
2017-May-15 00:30N 38°02' E 023°36'0 0.0
2017-May-15 00:00N 38°02' E 023°36'0 0.0
2017-May-14 23:30N 38°02' E 023°36'0 0.0
2017-May-14 23:00N 38°02' E 023°36'0 0.0
2017-May-14 22:30N 38°02' E 023°36'0 0.0
2017-May-14 22:00N 38°02' E 023°36'0 0.0
2017-May-14 21:30N 38°02' E 023°36'0 0.0
2017-May-14 21:00N 38°02' E 023°36'0 0.0
2017-May-14 20:30N 38°02' E 023°36'0 0.0
2017-May-14 20:00N 38°02' E 023°36'0 0.0
2017-May-14 19:30N 38°02' E 023°36'0 0.0
2017-May-14 19:00N 38°02' E 023°36'0 0.0
2017-May-14 18:30N 38°02' E 023°36'0 0.0
2017-May-14 18:00N 38°02' E 023°36'0 0.0
2017-May-14 17:30N 38°02' E 023°36'0 0.0
2017-May-14 17:00N 38°02' E 023°36'0 0.0
2017-May-14 16:30N 38°02' E 023°36'0 0.0
2017-May-14 16:01N 38°02' E 023°36'0 0.0
2017-May-14 15:30N 38°02' E 023°36'0 0.0
2017-May-14 15:00N 38°02' E 023°36'0 0.0
2017-May-14 14:30N 38°02' E 023°36'0 0.0
2017-May-14 13:30N 38°02' E 023°36'0 0.0
2017-May-14 13:00N 38°02' E 023°36'0 0.0
2017-May-14 12:30N 38°02' E 023°36'0 0.0
2017-May-14 12:00N 38°02' E 023°36'0 0.0
2017-May-14 11:30N 38°02' E 023°36'0 0.0
2017-May-14 11:00N 38°02' E 023°36'0 0.0
2017-May-14 10:30N 38°02' E 023°36'0 0.0
2017-May-14 10:00N 38°02' E 023°36'0 0.0
2017-May-14 09:30N 38°02' E 023°36'0 0.0
2017-May-14 09:00N 38°02' E 023°36'0 0.0
2017-May-14 08:30N 38°02' E 023°36'0 0.0
2017-May-14 08:00N 38°02' E 023°36'0 0.0
2017-May-14 07:30N 38°02' E 023°36'0 0.0
2017-May-14 07:00N 38°02' E 023°36'0 0.0
2017-May-14 06:30N 38°02' E 023°36'0 0.0
2017-May-14 06:00N 38°02' E 023°36'0 0.0
2017-May-14 05:30N 38°02' E 023°36'0 0.0
2017-May-14 05:00N 38°02' E 023°36'0 0.0
2017-May-14 04:30N 38°02' E 023°36'0 0.0
2017-May-14 04:00N 38°02' E 023°36'0 0.0
2017-May-14 03:30N 38°02' E 023°36'0 0.0
2017-May-14 03:00N 38°02' E 023°36'0 0.0
2017-May-14 02:30N 38°02' E 023°36'0 0.0
2017-May-14 02:00N 38°02' E 023°36'0 0.0
2017-May-14 01:30N 38°02' E 023°36'0 0.0
2017-May-14 01:00N 38°02' E 023°36'0 0.0
2017-May-14 00:30N 38°02' E 023°36'0 0.0
2017-May-14 00:00N 38°02' E 023°36'0 0.0
2017-May-13 23:30N 38°02' E 023°36'0 0.0
2017-May-13 23:00N 38°02' E 023°36'0 0.0
2017-May-13 22:31N 38°02' E 023°36'0 0.0
2017-May-13 22:00N 38°02' E 023°36'0 0.0
2017-May-13 21:30N 38°02' E 023°36'0 0.0
2017-May-13 21:00N 38°02' E 023°36'0 0.0
2017-May-13 20:30N 38°02' E 023°36'0 0.0
2017-May-13 20:00N 38°02' E 023°36'0 0.0
2017-May-13 19:30N 38°02' E 023°36'0 0.0
2017-May-13 19:00N 38°02' E 023°36'0 0.0
2017-May-13 18:30N 38°02' E 023°36'0 0.0
2017-May-13 18:00N 38°02' E 023°36'0 0.0
2017-May-13 17:30N 38°02' E 023°36'0 0.0
2017-May-13 17:00N 38°02' E 023°36'0 0.0
2017-May-13 16:30N 38°02' E 023°36'0 0.0
2017-May-13 16:00N 38°02' E 023°36'0 0.0
2017-May-13 15:30N 38°02' E 023°36'0 0.0
2017-May-13 15:00N 38°02' E 023°36'0 0.0
2017-May-13 14:30N 38°02' E 023°36'0 0.0
2017-May-13 13:30N 38°02' E 023°36'0 0.0
2017-May-13 13:00N 38°02' E 023°36'0 0.0
2017-May-13 12:30N 38°02' E 023°36'0 0.0
2017-May-13 12:01N 38°02' E 023°36'0 0.0
2017-May-13 11:30N 38°02' E 023°36'0 0.0
2017-May-13 11:00N 38°02' E 023°36'0 0.0
2017-May-13 10:30N 38°02' E 023°36'0 0.0
2017-May-13 10:00N 38°02' E 023°36'0 0.0
2017-May-13 09:30N 38°02' E 023°36'0 0.0
2017-May-13 09:00N 38°02' E 023°36'0 0.0
2017-May-13 08:30N 38°02' E 023°36'0 0.0
2017-May-13 08:00N 38°02' E 023°36'0 0.0
2017-May-13 07:30N 38°02' E 023°36'0 0.0
2017-May-13 07:00N 38°02' E 023°36'0 0.0
2017-May-13 06:30N 38°02' E 023°36'0 0.0
2017-May-13 06:00N 38°02' E 023°36'0 0.0
2017-May-13 05:30N 38°02' E 023°36'0 0.0
2017-May-13 05:00N 38°02' E 023°36'0 0.0
2017-May-13 04:30N 38°02' E 023°36'0 0.0
2017-May-13 04:00N 38°02' E 023°36'0 0.0
2017-May-13 03:30N 38°02' E 023°36'0 0.0
2017-May-13 03:00N 38°02' E 023°36'0 0.0
2017-May-13 02:30N 38°02' E 023°36'0 0.0
2017-May-13 02:00N 38°02' E 023°36'0 0.0
2017-May-13 01:30N 38°02' E 023°36'0 0.0
2017-May-13 01:00N 38°02' E 023°36'0 0.0
2017-May-13 00:30N 38°02' E 023°36'0 0.0
2017-May-13 00:00N 38°02' E 023°36'0 0.0
2017-May-12 23:30N 38°02' E 023°36'0 0.0
2017-May-12 23:00N 38°02' E 023°36'0 0.0
2017-May-12 22:30N 38°02' E 023°36'0 0.0
2017-May-12 22:00N 38°02' E 023°36'0 0.0
2017-May-12 21:30N 38°02' E 023°36'0 0.0
2017-May-12 21:00N 38°02' E 023°36'0 0.0
2017-May-12 20:30N 38°02' E 023°36'0 0.0
2017-May-12 20:00N 38°02' E 023°36'0 0.0
2017-May-12 19:30N 38°02' E 023°36'0 0.0
2017-May-12 19:00N 38°02' E 023°36'0 0.0
2017-May-12 18:31N 38°02' E 023°36'0 0.0
2017-May-12 18:00N 38°02' E 023°36'0 0.0
2017-May-12 17:30N 38°02' E 023°36'0 0.0
2017-May-12 17:00N 38°02' E 023°36'0 0.0
2017-May-12 16:30N 38°02' E 023°36'0 0.0
2017-May-12 16:00N 38°02' E 023°36'0 0.0
2017-May-12 15:30N 38°02' E 023°36'0 0.0
2017-May-12 15:00N 38°02' E 023°36'0 0.0
2017-May-12 14:30N 38°02' E 023°36'0 0.0
2017-May-12 13:30N 38°02' E 023°36'0 0.0
2017-May-12 13:00N 38°02' E 023°36'0 0.0
2017-May-12 12:30N 38°02' E 023°36'0 0.0
2017-May-12 12:00N 38°02' E 023°36'0 0.0
2017-May-12 11:30N 38°02' E 023°36'0 0.0
2017-May-12 11:00N 38°02' E 023°36'0 0.0
2017-May-12 10:30N 38°02' E 023°36'0 0.0
2017-May-12 10:00N 38°02' E 023°36'0 0.0
2017-May-12 09:30N 38°02' E 023°36'0 0.0
2017-May-12 09:00N 38°02' E 023°36'0 0.0
2017-May-12 08:30N 38°02' E 023°36'0 0.0
2017-May-12 08:00N 38°02' E 023°36'0 0.0
2017-May-12 07:30N 38°02' E 023°36'0 0.0
2017-May-12 07:00N 38°02' E 023°36'0 0.0
2017-May-12 06:30N 38°02' E 023°36'0 0.0
2017-May-12 06:00N 38°02' E 023°36'0 0.0
2017-May-12 05:30N 38°02' E 023°36'0 0.0
2017-May-12 05:00N 38°02' E 023°36'0 0.0
2017-May-12 04:30N 38°02' E 023°36'0 0.0
2017-May-12 04:00N 38°02' E 023°36'0 0.0
2017-May-12 03:30N 38°02' E 023°36'0 0.0
2017-May-12 03:00N 38°02' E 023°36'0 0.0
2017-May-12 02:30N 38°02' E 023°36'0 0.0
2017-May-12 02:00N 38°02' E 023°36'0 0.0
2017-May-12 01:30N 38°02' E 023°36'0 0.0
2017-May-12 01:00N 38°02' E 023°36'0 0.0
2017-May-12 00:30N 38°02' E 023°36'0 0.0
2017-May-12 00:00N 38°02' E 023°36'0 0.0
2017-May-11 23:30N 38°02' E 023°36'0 0.0
2017-May-11 23:00N 38°02' E 023°36'0 0.0
2017-May-11 22:30N 38°02' E 023°36'0 0.0
2017-May-11 22:00N 38°02' E 023°36'0 0.0
2017-May-11 21:30N 38°02' E 023°36'0 0.0
2017-May-11 21:00N 38°02' E 023°36'0 0.0
2017-May-11 20:30N 38°02' E 023°36'0 0.0
2017-May-11 20:00N 38°02' E 023°36'0 0.0
2017-May-11 19:30N 38°02' E 023°36'0 0.0
2017-May-11 19:00N 38°02' E 023°36'0 0.0
2017-May-11 18:30N 38°02' E 023°36'0 0.0
2017-May-11 18:00N 38°02' E 023°36'0 0.0
2017-May-11 17:30N 38°02' E 023°36'0 0.0
2017-May-11 17:00N 38°02' E 023°36'0 0.0
2017-May-11 16:30N 38°02' E 023°36'0 0.0
2017-May-11 16:00N 38°02' E 023°36'0 0.0
2017-May-11 15:30N 38°02' E 023°36'0 0.0
2017-May-11 15:00N 38°02' E 023°36'0 0.0
2017-May-11 14:00N 38°02' E 023°36'0 0.0
2017-May-11 13:30N 38°02' E 023°36'0 0.0
2017-May-11 13:00N 38°02' E 023°36'0 0.0
2017-May-11 12:30N 38°02' E 023°36'0 0.0
2017-May-11 12:00N 38°02' E 023°36'0 0.0
2017-May-11 11:30N 38°02' E 023°36'0 0.0
2017-May-11 11:00N 38°02' E 023°36'0 0.0
2017-May-11 10:30N 38°02' E 023°36'0 0.0
2017-May-11 10:00N 38°02' E 023°36'0 0.0
2017-May-11 09:30N 38°02' E 023°36'0 0.0
2017-May-11 09:00N 38°02' E 023°36'0 0.0
2017-May-11 08:30N 38°02' E 023°36'0 0.0
2017-May-11 08:00N 38°02' E 023°36'0 0.0
2017-May-11 07:30N 38°02' E 023°36'0 0.0
2017-May-11 07:00N 38°02' E 023°36'0 0.0
2017-May-11 06:30N 38°02' E 023°36'0 0.0
2017-May-11 06:00N 38°02' E 023°36'0 0.0
2017-May-11 05:30N 38°02' E 023°36'0 0.0
2017-May-11 05:00N 38°02' E 023°36'0 0.0
2017-May-11 04:30N 38°02' E 023°36'0 0.0
2017-May-11 04:00N 38°02' E 023°36'0 0.0
2017-May-11 03:30N 38°02' E 023°36'0 0.0
2017-May-11 03:00N 38°02' E 023°36'0 0.0
2017-May-11 02:30N 38°02' E 023°36'0 0.0
2017-May-11 02:00N 38°02' E 023°36'0 0.0
2017-May-11 01:30N 38°02' E 023°36'0 0.0
2017-May-11 01:00N 38°02' E 023°36'0 0.0
2017-May-11 00:30N 38°02' E 023°36'0 0.0
2017-May-11 00:00N 38°02' E 023°36'0 0.0
2017-May-10 23:30N 38°02' E 023°36'  
Track history (hours):
 
Tides and Currents Weather Stations Pressure Air Temp Water Temp Dewpoint Dewpoint Depression Visibility Wind Speed Wind Dir Waves Ship Positions

Agia Marina

Last reported at 2017-May-20 23:14 UTC. Time now 2017-May-25 03:05 UTC.
Position N 37°26' E 024°44'.

Length 59 m; draft 2.5 m.

Type: Cargo ship. MMSI: 237042500.

Date/timePositionNaut miles runAvg speedWind from/ knotsBaromVisibWave heightAir tempDewpointWater temp
2017-May-20 23:14N 37°26' E 024°44'2 7.5
2017-May-20 23:00N 37°25' E 024°45'4 7.7
2017-May-20 22:30N 37°22' E 024°49'4 7.4
2017-May-20 22:00N 37°20' E 024°52'4 7.5
2017-May-20 21:30N 37°19' E 024°57'4 7.7
2017-May-20 21:00N 37°17' E 025°01'4 7.7
2017-May-20 20:30N 37°15' E 025°05'4 7.5
2017-May-20 20:00N 37°13' E 025°09'4 7.6
2017-May-20 19:30N 37°12' E 025°14'4 7.8
2017-May-20 19:00N 37°10' E 025°18'4 8.0
2017-May-20 18:30N 37°07' E 025°21'1 1.9
2017-May-20 18:00N 37°06' E 025°22'0 0.0
2017-May-20 17:30N 37°06' E 025°22'3 6.2
2017-May-20 17:00N 37°08' E 025°19'4 7.3
2017-May-20 16:30N 37°10' E 025°16'4 7.8
2017-May-20 16:00N 37°12' E 025°11'4 7.7
2017-May-20 15:30N 37°13' E 025°07'4 7.5
2017-May-20 15:00N 37°15' E 025°02'4 7.5
2017-May-20 14:30N 37°17' E 024°58'8 7.5
2017-May-20 13:30N 37°20' E 024°50'4 7.3
2017-May-20 13:00N 37°22' E 024°46'36 7.7
2017-May-20 08:19N 37°34' E 024°03'3 7.4
2017-May-20 07:54N 37°35' E 023°60'13 7.5
2017-May-20 06:08N 37°39' E 023°44'1 7.5
2017-May-20 06:00N 37°40' E 023°43'4 7.7
2017-May-20 05:30N 37°43' E 023°40'4 7.5
2017-May-20 05:00N 37°47' E 023°38'4 7.6
2017-May-20 04:30N 37°50' E 023°36'4 7.6
2017-May-20 04:00N 37°54' E 023°35'3 6.9
2017-May-20 03:30N 37°57' E 023°34'3 6.3
2017-May-20 03:00N 38°00' E 023°33'3 5.2
2017-May-20 02:30N 38°02' E 023°36'0 0.0
2017-May-20 02:00N 38°02' E 023°36'0 0.0
2017-May-20 01:30N 38°02' E 023°36'0 0.0
2017-May-20 01:00N 38°02' E 023°36'0 0.0
2017-May-20 00:30N 38°02' E 023°36'0 0.0
2017-May-20 00:00N 38°02' E 023°36'0 0.0
2017-May-19 23:30N 38°02' E 023°36'0 0.0
2017-May-19 23:00N 38°02' E 023°36'0 0.0
2017-May-19 22:30N 38°02' E 023°36'0 0.0
2017-May-19 22:00N 38°02' E 023°36'0 0.0
2017-May-19 21:30N 38°02' E 023°36'0 0.0
2017-May-19 21:00N 38°02' E 023°36'0 0.0
2017-May-19 20:30N 38°02' E 023°36'0 0.0
2017-May-19 20:00N 38°02' E 023°36'0 0.0
2017-May-19 19:30N 38°02' E 023°36'0 0.0
2017-May-19 19:00N 38°02' E 023°36'0 0.0
2017-May-19 18:30N 38°02' E 023°36'0 0.0
2017-May-19 18:00N 38°02' E 023°36'0 0.0
2017-May-19 17:30N 38°02' E 023°36'0 0.0
2017-May-19 17:00N 38°02' E 023°36'0 0.0
2017-May-19 16:30N 38°02' E 023°36'0 0.0
2017-May-19 16:00N 38°02' E 023°36'0 0.0
2017-May-19 15:30N 38°02' E 023°36'0 0.0
2017-May-19 15:00N 38°02' E 023°36'0 0.0
2017-May-19 14:00N 38°02' E 023°36'0 0.0
2017-May-19 13:30N 38°02' E 023°36'0 0.0
2017-May-19 13:00N 38°02' E 023°36'0 0.0
2017-May-19 12:30N 38°02' E 023°36'0 0.0
2017-May-19 12:00N 38°02' E 023°36'0 0.0
2017-May-19 11:30N 38°02' E 023°36'0 0.0
2017-May-19 11:00N 38°02' E 023°36'0 0.0
2017-May-19 10:30N 38°02' E 023°36'0 0.0
2017-May-19 10:00N 38°02' E 023°36'0 0.0
2017-May-19 09:30N 38°02' E 023°36'0 0.0
2017-May-19 09:00N 38°02' E 023°36'0 0.0
2017-May-19 08:30N 38°02' E 023°36'0 0.0
2017-May-19 08:00N 38°02' E 023°36'0 0.0
2017-May-19 07:30N 38°02' E 023°36'0 0.0
2017-May-19 07:00N 38°02' E 023°36'0 0.0
2017-May-19 06:30N 38°02' E 023°36'0 0.0
2017-May-19 06:00N 38°02' E 023°36'0 0.0
2017-May-19 05:30N 38°02' E 023°36'0 0.0
2017-May-19 05:00N 38°02' E 023°36'0 0.0
2017-May-19 04:30N 38°02' E 023°36'0 0.0
2017-May-19 04:01N 38°02' E 023°36'0 0.0
2017-May-19 03:30N 38°02' E 023°36'0 0.0
2017-May-19 03:00N 38°02' E 023°36'0 0.0
2017-May-19 02:30N 38°02' E 023°36'0 0.0
2017-May-19 02:00N 38°02' E 023°36'0 0.0
2017-May-19 01:30N 38°02' E 023°36'0 0.0
2017-May-19 01:00N 38°02' E 023°36'0 0.0
2017-May-19 00:30N 38°02' E 023°36'0 0.0
2017-May-19 00:00N 38°02' E 023°36'0 0.0
2017-May-18 23:30N 38°02' E 023°36'0 0.0
2017-May-18 23:00N 38°02' E 023°36'0 0.0
2017-May-18 22:30N 38°02' E 023°36'0 0.0
2017-May-18 22:00N 38°02' E 023°36'0 0.0
2017-May-18 21:30N 38°02' E 023°36'0 0.0
2017-May-18 21:00N 38°02' E 023°36'0 0.0
2017-May-18 20:30N 38°02' E 023°36'0 0.0
2017-May-18 20:00N 38°02' E 023°36'0 0.0
2017-May-18 19:30N 38°02' E 023°36'0 0.0
2017-May-18 19:00N 38°02' E 023°36'0 0.0
2017-May-18 18:30N 38°02' E 023°36'0 0.0
2017-May-18 18:01N 38°02' E 023°36'0 0.0
2017-May-18 17:30N 38°02' E 023°36'0 0.0
2017-May-18 17:00N 38°02' E 023°36'0 0.0
2017-May-18 16:30N 38°02' E 023°36'0 0.0
2017-May-18 16:00N 38°02' E 023°36'0 0.0
2017-May-18 15:30N 38°02' E 023°36'0 0.0
2017-May-18 15:00N 38°02' E 023°36'0 0.0
2017-May-18 14:00N 38°02' E 023°36'0 0.0
2017-May-18 13:30N 38°02' E 023°36'0 0.0
2017-May-18 13:00N 38°02' E 023°36'0 0.0
2017-May-18 12:30N 38°02' E 023°36'0 0.0
2017-May-18 12:00N 38°02' E 023°36'0 0.0
2017-May-18 11:30N 38°02' E 023°36'0 0.0
2017-May-18 11:00N 38°02' E 023°36'0 0.0
2017-May-18 10:30N 38°02' E 023°36'0 0.0
2017-May-18 10:00N 38°02' E 023°36'0 0.0
2017-May-18 09:30N 38°02' E 023°36'0 0.0
2017-May-18 09:00N 38°02' E 023°36'0 0.0
2017-May-18 08:30N 38°02' E 023°36'0 0.0
2017-May-18 08:00N 38°02' E 023°36'0 0.0
2017-May-18 07:30N 38°02' E 023°36'0 0.0
2017-May-18 07:00N 38°02' E 023°36'0 0.0
2017-May-18 06:30N 38°02' E 023°36'0 0.0
2017-May-18 06:00N 38°02' E 023°36'0 0.0
2017-May-18 05:30N 38°02' E 023°36'0 0.0
2017-May-18 05:00N 38°02' E 023°36'0 0.0
2017-May-18 04:30N 38°02' E 023°36'0 0.0
2017-May-18 04:00N 38°02' E 023°36'0 0.0
2017-May-18 03:30N 38°02' E 023°36'0 0.0
2017-May-18 03:00N 38°02' E 023°36'0 0.0
2017-May-18 02:30N 38°02' E 023°36'0 0.0
2017-May-18 02:00N 38°02' E 023°36'0 0.0
2017-May-18 01:30N 38°02' E 023°36'0 0.0
2017-May-18 01:00N 38°02' E 023°36'0 0.0
2017-May-18 00:30N 38°02' E 023°36'0 0.0
2017-May-18 00:00N 38°02' E 023°36'0 0.0
2017-May-17 23:30N 38°02' E 023°36'0 0.0
2017-May-17 23:00N 38°02' E 023°36'0 0.0
2017-May-17 22:30N 38°02' E 023°36'0 0.0
2017-May-17 22:00N 38°02' E 023°36'0 0.0
2017-May-17 21:30N 38°02' E 023°36'0 0.0
2017-May-17 21:00N 38°02' E 023°36'0 0.0
2017-May-17 20:30N 38°02' E 023°36'0 0.0
2017-May-17 20:00N 38°02' E 023°36'0 0.0
2017-May-17 19:30N 38°02' E 023°36'0 0.0
2017-May-17 19:00N 38°02' E 023°36'0 0.0
2017-May-17 18:30N 38°02' E 023°36'0 0.0
2017-May-17 18:00N 38°02' E 023°36'0 0.0
2017-May-17 17:30N 38°02' E 023°36'0 0.0
2017-May-17 17:00N 38°02' E 023°36'0 0.0
2017-May-17 16:30N 38°02' E 023°36'0 0.0
2017-May-17 16:00N 38°02' E 023°36'0 0.0
2017-May-17 15:30N 38°02' E 023°36'0 0.0
2017-May-17 15:00N 38°02' E 023°36'0 0.0
2017-May-17 14:00N 38°02' E 023°36'0 0.0
2017-May-17 13:30N 38°02' E 023°36'0 0.0
2017-May-17 13:00N 38°02' E 023°36'0 0.0
2017-May-17 12:30N 38°02' E 023°36'0 0.0
2017-May-17 12:00N 38°02' E 023°36'0 0.0
2017-May-17 11:30N 38°02' E 023°36'0 0.0
2017-May-17 11:00N 38°02' E 023°36'0 0.0
2017-May-17 10:30N 38°02' E 023°36'0 0.0
2017-May-17 10:00N 38°02' E 023°36'0 0.0
2017-May-17 09:30N 38°02' E 023°36'0 0.0
2017-May-17 09:00N 38°02' E 023°36'0 0.0
2017-May-17 08:30N 38°02' E 023°36'0 0.0
2017-May-17 08:00N 38°02' E 023°36'0 0.0
2017-May-17 07:30N 38°02' E 023°36'0 0.0
2017-May-17 07:00N 38°02' E 023°36'0 0.0
2017-May-17 06:30N 38°02' E 023°36'0 0.0
2017-May-17 06:00N 38°02' E 023°36'0 0.0
2017-May-17 05:30N 38°02' E 023°36'0 0.0
2017-May-17 05:01N 38°02' E 023°36'0 0.0
2017-May-17 04:30N 38°02' E 023°36'0 0.0
2017-May-17 04:00N 38°02' E 023°36'0 0.0
2017-May-17 03:30N 38°02' E 023°36'0 0.0
2017-May-17 03:00N 38°02' E 023°36'0 0.0
2017-May-17 02:30N 38°02' E 023°36'0 0.0
2017-May-17 02:00N 38°02' E 023°36'0 0.0
2017-May-17 01:30N 38°02' E 023°36'0 0.0
2017-May-17 01:00N 38°02' E 023°36'0 0.0
2017-May-17 00:30N 38°02' E 023°36'0 0.0
2017-May-17 00:00N 38°02' E 023°36'0 0.0
2017-May-16 23:30N 38°02' E 023°36'0 0.0
2017-May-16 23:00N 38°02' E 023°36'0 0.0
2017-May-16 22:30N 38°02' E 023°36'0 0.0
2017-May-16 22:00N 38°02' E 023°36'0 0.0
2017-May-16 21:30N 38°02' E 023°36'0 0.0
2017-May-16 21:01N 38°02' E 023°36'0 0.0
2017-May-16 20:31N 38°02' E 023°36'0 0.0
2017-May-16 20:00N 38°02' E 023°36'0 0.0
2017-May-16 19:30N 38°02' E 023°36'0 0.0
2017-May-16 19:00N 38°02' E 023°36'0 0.0
2017-May-16 18:30N 38°02' E 023°36'0 0.0
2017-May-16 18:00N 38°02' E 023°36'0 0.0
2017-May-16 17:30N 38°02' E 023°36'0 0.0
2017-May-16 17:00N 38°02' E 023°36'0 0.0
2017-May-16 16:30N 38°02' E 023°36'0 0.0
2017-May-16 16:00N 38°02' E 023°36'0 0.0
2017-May-16 15:30N 38°02' E 023°36'0 0.0
2017-May-16 15:00N 38°02' E 023°36'0 0.0
2017-May-16 14:30N 38°02' E 023°36'0 0.0
2017-May-16 13:30N 38°02' E 023°36'0 0.0
2017-May-16 13:00N 38°02' E 023°36'0 0.0
2017-May-16 12:30N 38°02' E 023°36'0 0.0
2017-May-16 12:00N 38°02' E 023°36'0 0.0
2017-May-16 11:30N 38°02' E 023°36'0 0.0
2017-May-16 11:00N 38°02' E 023°36'0 0.0
2017-May-16 10:30N 38°02' E 023°36'0 0.0
2017-May-16 10:00N 38°02' E 023°36'0 0.0
2017-May-16 09:30N 38°02' E 023°36'0 0.0
2017-May-16 09:00N 38°02' E 023°36'0 0.0
2017-May-16 08:30N 38°02' E 023°36'0 0.0
2017-May-16 08:00N 38°02' E 023°36'0 0.0
2017-May-16 07:30N 38°02' E 023°36'0 0.0
2017-May-16 07:00N 38°02' E 023°36'0 0.0
2017-May-16 06:30N 38°02' E 023°36'0 0.0
2017-May-16 06:00N 38°02' E 023°36'0 0.0
2017-May-16 05:30N 38°02' E 023°36'0 0.0
2017-May-16 05:00N 38°02' E 023°36'0 0.0
2017-May-16 04:30N 38°02' E 023°36'0 0.0
2017-May-16 04:00N 38°02' E 023°36'0 0.0
2017-May-16 03:30N 38°02' E 023°36'0 0.0
2017-May-16 03:00N 38°02' E 023°36'0 0.0
2017-May-16 02:30N 38°02' E 023°36'0 0.0
2017-May-16 02:00N 38°02' E 023°36'0 0.0
2017-May-16 01:30N 38°02' E 023°36'0 0.0
2017-May-16 01:00N 38°02' E 023°36'0 0.0
2017-May-16 00:31N 38°02' E 023°36'0 0.0
2017-May-16 00:00N 38°02' E 023°36'0 0.0
2017-May-15 23:30N 38°02' E 023°36'0 0.0
2017-May-15 23:00N 38°02' E 023°36'0 0.0
2017-May-15 22:30N 38°02' E 023°36'0 0.0
2017-May-15 22:00N 38°02' E 023°36'0 0.0
2017-May-15 21:30N 38°02' E 023°36'0 0.0
2017-May-15 21:00N 38°02' E 023°36'0 0.0
2017-May-15 20:30N 38°02' E 023°36'0 0.0
2017-May-15 20:00N 38°02' E 023°36'0 0.0
2017-May-15 19:30N 38°02' E 023°36'0 0.0
2017-May-15 19:00N 38°02' E 023°36'0 0.0
2017-May-15 18:30N 38°02' E 023°36'0 0.0
2017-May-15 18:00N 38°02' E 023°36'0 0.0
2017-May-15 17:30N 38°02' E 023°36'0 0.0
2017-May-15 17:00N 38°02' E 023°36'0 0.0
2017-May-15 16:30N 38°02' E 023°36'0 0.0
2017-May-15 16:00N 38°02' E 023°36'0 0.0
2017-May-15 15:30N 38°02' E 023°36'0 0.0
2017-May-15 15:00N 38°02' E 023°36'0 0.0
2017-May-15 14:30N 38°02' E 023°36'0 0.0
2017-May-15 13:31N 38°02' E 023°36'0 0.0
2017-May-15 13:00N 38°02' E 023°36'0 0.0
2017-May-15 12:30N 38°02' E 023°36'0 0.0
2017-May-15 12:00N 38°02' E 023°36'0 0.0
2017-May-15 11:30N 38°02' E 023°36'0 0.0
2017-May-15 11:00N 38°02' E 023°36'0 0.0
2017-May-15 10:30N 38°02' E 023°36'0 0.0
2017-May-15 10:00N 38°02' E 023°36'0 0.0
2017-May-15 09:30N 38°02' E 023°36'0 0.0
2017-May-15 09:00N 38°02' E 023°36'0 0.0
2017-May-15 08:30N 38°02' E 023°36'0 0.0
2017-May-15 08:00N 38°02' E 023°36'0 0.0
2017-May-15 07:30N 38°02' E 023°36'0 0.0
2017-May-15 07:00N 38°02' E 023°36'0 0.0
2017-May-15 06:30N 38°02' E 023°36'0 0.0
2017-May-15 06:00N 38°02' E 023°36'0 0.0
2017-May-15 05:30N 38°02' E 023°36'0 0.0
2017-May-15 05:00N 38°02' E 023°36'0 0.0
2017-May-15 04:30N 38°02' E 023°36'0 0.0
2017-May-15 04:00N 38°02' E 023°36'0 0.0
2017-May-15 03:30N 38°02' E 023°36'0 0.0
2017-May-15 03:00N 38°02' E 023°36'0 0.0
2017-May-15 02:30N 38°02' E 023°36'0 0.0
2017-May-15 02:00N 38°02' E 023°36'0 0.0
2017-May-15 01:30N 38°02' E 023°36'0 0.0
2017-May-15 01:00N 38°02' E 023°36'0 0.0
2017-May-15 00:30N 38°02' E 023°36'0 0.0
2017-May-15 00:00N 38°02' E 023°36'0 0.0
2017-May-14 23:30N 38°02' E 023°36'0 0.0
2017-May-14 23:00N 38°02' E 023°36'0 0.0
2017-May-14 22:30N 38°02' E 023°36'0 0.0
2017-May-14 22:00N 38°02' E 023°36'0 0.0
2017-May-14 21:30N 38°02' E 023°36'0 0.0
2017-May-14 21:00N 38°02' E 023°36'0 0.0
2017-May-14 20:30N 38°02' E 023°36'0 0.0
2017-May-14 20:00N 38°02' E 023°36'0 0.0
2017-May-14 19:30N 38°02' E 023°36'0 0.0
2017-May-14 19:00N 38°02' E 023°36'0 0.0
2017-May-14 18:30N 38°02' E 023°36'0 0.0
2017-May-14 18:00N 38°02' E 023°36'0 0.0
2017-May-14 17:30N 38°02' E 023°36'0 0.0
2017-May-14 17:00N 38°02' E 023°36'0 0.0
2017-May-14 16:30N 38°02' E 023°36'0 0.0
2017-May-14 16:01N 38°02' E 023°36'0 0.0
2017-May-14 15:30N 38°02' E 023°36'0 0.0
2017-May-14 15:00N 38°02' E 023°36'0 0.0
2017-May-14 14:30N 38°02' E 023°36'0 0.0
2017-May-14 13:30N 38°02' E 023°36'0 0.0
2017-May-14 13:00N 38°02' E 023°36'0 0.0
2017-May-14 12:30N 38°02' E 023°36'0 0.0
2017-May-14 12:00N 38°02' E 023°36'0 0.0
2017-May-14 11:30N 38°02' E 023°36'0 0.0
2017-May-14 11:00N 38°02' E 023°36'0 0.0
2017-May-14 10:30N 38°02' E 023°36'0 0.0
2017-May-14 10:00N 38°02' E 023°36'0 0.0
2017-May-14 09:30N 38°02' E 023°36'0 0.0
2017-May-14 09:00N 38°02' E 023°36'0 0.0
2017-May-14 08:30N 38°02' E 023°36'0 0.0
2017-May-14 08:00N 38°02' E 023°36'0 0.0
2017-May-14 07:30N 38°02' E 023°36'0 0.0
2017-May-14 07:00N 38°02' E 023°36'0 0.0
2017-May-14 06:30N 38°02' E 023°36'0 0.0
2017-May-14 06:00N 38°02' E 023°36'0 0.0
2017-May-14 05:30N 38°02' E 023°36'0 0.0
2017-May-14 05:00N 38°02' E 023°36'0 0.0
2017-May-14 04:30N 38°02' E 023°36'0 0.0
2017-May-14 04:00N 38°02' E 023°36'0 0.0
2017-May-14 03:30N 38°02' E 023°36'0 0.0
2017-May-14 03:00N 38°02' E 023°36'0 0.0
2017-May-14 02:30N 38°02' E 023°36'0 0.0
2017-May-14 02:00N 38°02' E 023°36'0 0.0
2017-May-14 01:30N 38°02' E 023°36'0 0.0
2017-May-14 01:00N 38°02' E 023°36'0 0.0
2017-May-14 00:30N 38°02' E 023°36'0 0.0
2017-May-14 00:00N 38°02' E 023°36'0 0.0
2017-May-13 23:30N 38°02' E 023°36'0 0.0
2017-May-13 23:00N 38°02' E 023°36'0 0.0
2017-May-13 22:31N 38°02' E 023°36'0 0.0
2017-May-13 22:00N 38°02' E 023°36'0 0.0
2017-May-13 21:30N 38°02' E 023°36'0 0.0
2017-May-13 21:00N 38°02' E 023°36'0 0.0
2017-May-13 20:30N 38°02' E 023°36'0 0.0
2017-May-13 20:00N 38°02' E 023°36'0 0.0
2017-May-13 19:30N 38°02' E 023°36'0 0.0
2017-May-13 19:00N 38°02' E 023°36'0 0.0
2017-May-13 18:30N 38°02' E 023°36'0 0.0
2017-May-13 18:00N 38°02' E 023°36'0 0.0
2017-May-13 17:30N 38°02' E 023°36'0 0.0
2017-May-13 17:00N 38°02' E 023°36'0 0.0
2017-May-13 16:30N 38°02' E 023°36'0 0.0
2017-May-13 16:00N 38°02' E 023°36'0 0.0
2017-May-13 15:30N 38°02' E 023°36'0 0.0
2017-May-13 15:00N 38°02' E 023°36'0 0.0
2017-May-13 14:30N 38°02' E 023°36'0 0.0
2017-May-13 13:30N 38°02' E 023°36'0 0.0
2017-May-13 13:00N 38°02' E 023°36'0 0.0
2017-May-13 12:30N 38°02' E 023°36'0 0.0
2017-May-13 12:01N 38°02' E 023°36'0 0.0
2017-May-13 11:30N 38°02' E 023°36'0 0.0
2017-May-13 11:00N 38°02' E 023°36'0 0.0
2017-May-13 10:30N 38°02' E 023°36'0 0.0
2017-May-13 10:00N 38°02' E 023°36'0 0.0
2017-May-13 09:30N 38°02' E 023°36'0 0.0
2017-May-13 09:00N 38°02' E 023°36'0 0.0
2017-May-13 08:30N 38°02' E 023°36'0 0.0
2017-May-13 08:00N 38°02' E 023°36'0 0.0
2017-May-13 07:30N 38°02' E 023°36'0 0.0
2017-May-13 07:00N 38°02' E 023°36'0 0.0
2017-May-13 06:30N 38°02' E 023°36'0 0.0
2017-May-13 06:00N 38°02' E 023°36'0 0.0
2017-May-13 05:30N 38°02' E 023°36'0 0.0
2017-May-13 05:00N 38°02' E 023°36'0 0.0
2017-May-13 04:30N 38°02' E 023°36'0 0.0
2017-May-13 04:00N 38°02' E 023°36'0 0.0
2017-May-13 03:30N 38°02' E 023°36'0 0.0
2017-May-13 03:00N 38°02' E 023°36'0 0.0
2017-May-13 02:30N 38°02' E 023°36'0 0.0
2017-May-13 02:00N 38°02' E 023°36'0 0.0
2017-May-13 01:30N 38°02' E 023°36'0 0.0
2017-May-13 01:00N 38°02' E 023°36'0 0.0
2017-May-13 00:30N 38°02' E 023°36'0 0.0
2017-May-13 00:00N 38°02' E 023°36'0 0.0
2017-May-12 23:30N 38°02' E 023°36'0 0.0
2017-May-12 23:00N 38°02' E 023°36'0 0.0
2017-May-12 22:30N 38°02' E 023°36'0 0.0
2017-May-12 22:00N 38°02' E 023°36'0 0.0
2017-May-12 21:30N 38°02' E 023°36'0 0.0
2017-May-12 21:00N 38°02' E 023°36'0 0.0
2017-May-12 20:30N 38°02' E 023°36'0 0.0
2017-May-12 20:00N 38°02' E 023°36'0 0.0
2017-May-12 19:30N 38°02' E 023°36'0 0.0
2017-May-12 19:00N 38°02' E 023°36'0 0.0
2017-May-12 18:31N 38°02' E 023°36'0 0.0
2017-May-12 18:00N 38°02' E 023°36'0 0.0
2017-May-12 17:30N 38°02' E 023°36'0 0.0
2017-May-12 17:00N 38°02' E 023°36'0 0.0
2017-May-12 16:30N 38°02' E 023°36'0 0.0
2017-May-12 16:00N 38°02' E 023°36'0 0.0
2017-May-12 15:30N 38°02' E 023°36'0 0.0
2017-May-12 15:00N 38°02' E 023°36'0 0.0
2017-May-12 14:30N 38°02' E 023°36'0 0.0
2017-May-12 13:30N 38°02' E 023°36'0 0.0
2017-May-12 13:00N 38°02' E 023°36'0 0.0
2017-May-12 12:30N 38°02' E 023°36'0 0.0
2017-May-12 12:00N 38°02' E 023°36'0 0.0
2017-May-12 11:30N 38°02' E 023°36'0 0.0
2017-May-12 11:00N 38°02' E 023°36'0 0.0
2017-May-12 10:30N 38°02' E 023°36'0 0.0
2017-May-12 10:00N 38°02' E 023°36'0 0.0
2017-May-12 09:30N 38°02' E 023°36'0 0.0
2017-May-12 09:00N 38°02' E 023°36'0 0.0
2017-May-12 08:30N 38°02' E 023°36'0 0.0
2017-May-12 08:00N 38°02' E 023°36'0 0.0
2017-May-12 07:30N 38°02' E 023°36'0 0.0
2017-May-12 07:00N 38°02' E 023°36'0 0.0
2017-May-12 06:30N 38°02' E 023°36'0 0.0
2017-May-12 06:00N 38°02' E 023°36'0 0.0
2017-May-12 05:30N 38°02' E 023°36'0 0.0
2017-May-12 05:00N 38°02' E 023°36'0 0.0
2017-May-12 04:30N 38°02' E 023°36'0 0.0
2017-May-12 04:00N 38°02' E 023°36'0 0.0
2017-May-12 03:30N 38°02' E 023°36'0 0.0
2017-May-12 03:00N 38°02' E 023°36'0 0.0
2017-May-12 02:30N 38°02' E 023°36'0 0.0
2017-May-12 02:00N 38°02' E 023°36'0 0.0
2017-May-12 01:30N 38°02' E 023°36'0 0.0
2017-May-12 01:00N 38°02' E 023°36'0 0.0
2017-May-12 00:30N 38°02' E 023°36'0 0.0
2017-May-12 00:00N 38°02' E 023°36'0 0.0
2017-May-11 23:30N 38°02' E 023°36'0 0.0
2017-May-11 23:00N 38°02' E 023°36'0 0.0
2017-May-11 22:30N 38°02' E 023°36'0 0.0
2017-May-11 22:00N 38°02' E 023°36'0 0.0
2017-May-11 21:30N 38°02' E 023°36'0 0.0
2017-May-11 21:00N 38°02' E 023°36'0 0.0
2017-May-11 20:30N 38°02' E 023°36'0 0.0
2017-May-11 20:00N 38°02' E 023°36'0 0.0
2017-May-11 19:30N 38°02' E 023°36'0 0.0
2017-May-11 19:00N 38°02' E 023°36'0 0.0
2017-May-11 18:30N 38°02' E 023°36'0 0.0
2017-May-11 18:00N 38°02' E 023°36'0 0.0
2017-May-11 17:30N 38°02' E 023°36'0 0.0
2017-May-11 17:00N 38°02' E 023°36'0 0.0
2017-May-11 16:30N 38°02' E 023°36'0 0.0
2017-May-11 16:00N 38°02' E 023°36'0 0.0
2017-May-11 15:30N 38°02' E 023°36'0 0.0
2017-May-11 15:00N 38°02' E 023°36'0 0.0
2017-May-11 14:00N 38°02' E 023°36'0 0.0
2017-May-11 13:30N 38°02' E 023°36'0 0.0
2017-May-11 13:00N 38°02' E 023°36'0 0.0
2017-May-11 12:30N 38°02' E 023°36'0 0.0
2017-May-11 12:00N 38°02' E 023°36'0 0.0
2017-May-11 11:30N 38°02' E 023°36'0 0.0
2017-May-11 11:00N 38°02' E 023°36'0 0.0
2017-May-11 10:30N 38°02' E 023°36'0 0.0
2017-May-11 10:00N 38°02' E 023°36'0 0.0
2017-May-11 09:30N 38°02' E 023°36'0 0.0
2017-May-11 09:00N 38°02' E 023°36'0 0.0
2017-May-11 08:30N 38°02' E 023°36'0 0.0
2017-May-11 08:00N 38°02' E 023°36'0 0.0
2017-May-11 07:30N 38°02' E 023°36'0 0.0
2017-May-11 07:00N 38°02' E 023°36'0 0.0
2017-May-11 06:30N 38°02' E 023°36'0 0.0
2017-May-11 06:00N 38°02' E 023°36'0 0.0
2017-May-11 05:30N 38°02' E 023°36'0 0.0
2017-May-11 05:00N 38°02' E 023°36'0 0.0
2017-May-11 04:30N 38°02' E 023°36'0 0.0
2017-May-11 04:00N 38°02' E 023°36'0 0.0
2017-May-11 03:30N 38°02' E 023°36'0 0.0
2017-May-11 03:00N 38°02' E 023°36'0 0.0
2017-May-11 02:30N 38°02' E 023°36'0 0.0
2017-May-11 02:00N 38°02' E 023°36'0 0.0
2017-May-11 01:30N 38°02' E 023°36'0 0.0
2017-May-11 01:00N 38°02' E 023°36'0 0.0
2017-May-11 00:30N 38°02' E 023°36'0 0.0
2017-May-11 00:00N 38°02' E 023°36'0 0.0
2017-May-10 23:30N 38°02' E 023°36'  

Dump ship's entire track history